createdAt,value
2018-11-12T01:29:38.322Z,9.67
2018-11-12T01:29:38.900Z,9.81
2018-11-12T01:29:39.499Z,9.79
2018-11-12T01:29:40.097Z,9.75
2018-11-12T01:29:40.698Z,9.68
2018-11-12T01:29:41.297Z,9.86
2018-11-12T01:29:41.897Z,9.81
2018-11-12T01:30:35.976Z,9.66
2018-11-12T01:30:36.551Z,9.68
2018-11-12T01:30:37.151Z,9.79
2018-11-12T01:30:37.751Z,9.85
2018-11-12T01:30:38.351Z,9.75
2018-11-12T01:30:38.950Z,9.85
2018-11-12T01:30:39.550Z,9.71
2018-11-12T01:31:33.608Z,9.79
2018-11-12T01:31:34.205Z,9.73
2018-11-12T01:31:34.807Z,9.79
2018-11-12T01:31:35.404Z,9.79
2018-11-12T01:31:36.002Z,9.71
2018-11-12T01:31:36.602Z,9.78
2018-11-12T01:31:37.203Z,9.75
2018-11-12T01:32:31.259Z,9.75
2018-11-12T01:32:31.859Z,9.78
2018-11-12T01:32:32.457Z,9.75
2018-11-12T01:32:33.056Z,9.71
2018-11-12T01:32:33.655Z,9.78
2018-11-12T01:32:34.256Z,9.73
2018-11-12T01:32:34.855Z,9.73
2018-11-12T01:33:28.913Z,9.71
2018-11-12T01:33:29.508Z,9.73
2018-11-12T01:33:30.108Z,9.79
2018-11-12T01:33:30.708Z,9.73
2018-11-12T01:33:31.307Z,9.76
2018-11-12T01:33:31.907Z,9.76
2018-11-12T01:33:32.506Z,9.76
2018-11-12T01:34:26.563Z,9.79
2018-11-12T01:34:27.160Z,9.73
2018-11-12T01:34:27.760Z,9.71
2018-11-12T01:34:28.359Z,9.82
2018-11-12T01:34:28.960Z,9.75
2018-11-12T01:34:29.558Z,9.76
2018-11-12T01:34:30.158Z,9.83
2018-11-12T01:35:24.237Z,9.67
2018-11-12T01:35:24.812Z,9.78
2018-11-12T01:35:25.412Z,9.75
2018-11-12T01:35:26.011Z,9.81
2018-11-12T01:35:26.611Z,9.76
2018-11-12T01:35:27.211Z,9.81
2018-11-12T01:35:27.810Z,9.86
2018-11-12T01:36:21.867Z,9.82
2018-11-12T01:36:22.467Z,9.85
2018-11-12T01:36:23.064Z,9.82
2018-11-12T01:36:23.663Z,9.82
2018-11-12T01:36:24.263Z,9.85
2018-11-12T01:36:24.866Z,9.86
2018-11-12T01:36:25.463Z,9.86
2018-11-12T01:37:19.519Z,9.79
2018-11-12T01:37:20.116Z,9.83
2018-11-12T01:37:20.715Z,9.86
2018-11-12T01:37:21.315Z,9.86
2018-11-12T01:37:21.915Z,9.85
2018-11-12T01:37:22.515Z,9.88
2018-11-12T01:37:23.115Z,9.85
2018-11-12T01:38:16.661Z,9.83
2018-11-12T01:38:17.259Z,9.89
2018-11-12T01:38:17.857Z,9.89
2018-11-12T01:38:18.457Z,9.94
2018-11-12T01:38:19.057Z,9.81
2018-11-12T01:38:19.657Z,9.89
2018-11-12T01:38:20.257Z,9.83
2018-11-12T01:38:20.856Z,9.93
2018-11-12T01:39:14.824Z,9.94
2018-11-12T01:39:15.427Z,9.91
2018-11-12T01:39:16.021Z,9.91
2018-11-12T01:39:16.620Z,9.91
2018-11-12T01:39:17.219Z,9.94
2018-11-12T01:39:17.823Z,9.86
2018-11-12T01:39:18.420Z,9.89
2018-11-12T01:40:32.465Z,9.94
2018-11-12T01:40:33.041Z,9.85
2018-11-12T01:40:33.640Z,9.94
2018-11-12T01:40:34.244Z,9.93
2018-11-12T01:40:34.840Z,9.99
2018-11-12T01:40:35.441Z,9.96
2018-11-12T01:40:36.040Z,9.93
2018-11-12T01:41:30.094Z,9.86
2018-11-12T01:41:30.692Z,9.94
2018-11-12T01:41:31.291Z,9.97
2018-11-12T01:41:31.891Z,9.89
2018-11-12T01:41:32.492Z,9.96
2018-11-12T01:41:33.091Z,9.89
2018-11-12T01:41:33.690Z,9.89
2018-11-12T01:42:27.747Z,9.93
2018-11-12T01:42:28.344Z,9.97
2018-11-12T01:42:28.944Z,10.00
2018-11-12T01:42:29.546Z,9.96
2018-11-12T01:42:30.144Z,9.88
2018-11-12T01:42:30.744Z,9.91
2018-11-12T01:42:31.342Z,9.93
2018-11-12T01:43:25.399Z,9.96
2018-11-12T01:43:25.996Z,10.01
2018-11-12T01:43:26.595Z,9.96
2018-11-12T01:43:27.196Z,10.03
2018-11-12T01:43:27.796Z,9.97
2018-11-12T01:43:28.394Z,9.99
2018-11-12T01:43:28.996Z,9.97
2018-11-12T01:44:23.052Z,10.00
2018-11-12T01:44:23.648Z,9.97
2018-11-12T01:44:24.247Z,9.99
2018-11-12T01:44:24.847Z,10.04
2018-11-12T01:44:25.447Z,10.07
2018-11-12T01:44:26.046Z,10.03
2018-11-12T01:44:26.647Z,10.04
2018-11-12T01:45:20.822Z,10.01
2018-11-12T01:45:21.322Z,10.03
2018-11-12T01:45:21.923Z,10.04
2018-11-12T01:45:22.525Z,10.04
2018-11-12T01:45:23.122Z,10.01
2018-11-12T01:45:23.721Z,10.03
2018-11-12T01:45:24.321Z,10.01
2018-11-12T01:46:18.353Z,10.03
2018-11-12T01:46:18.951Z,10.12
2018-11-12T01:46:19.556Z,10.06
2018-11-12T01:46:20.150Z,10.07
2018-11-12T01:46:20.750Z,10.10
2018-11-12T01:46:21.350Z,10.06
2018-11-12T01:46:21.948Z,10.12
2018-11-12T01:47:16.006Z,10.15
2018-11-12T01:47:16.603Z,10.04
2018-11-12T01:47:17.206Z,10.07
2018-11-12T01:47:17.803Z,10.07
2018-11-12T01:47:18.402Z,10.07
2018-11-12T01:47:19.002Z,10.12
2018-11-12T01:47:19.603Z,10.04
2018-11-12T01:48:13.151Z,10.09
2018-11-12T01:48:13.748Z,10.17
2018-11-12T01:48:14.344Z,10.12
2018-11-12T01:48:14.943Z,10.07
2018-11-12T01:48:15.542Z,10.09
2018-11-12T01:48:16.143Z,10.07
2018-11-12T01:48:16.746Z,10.15
2018-11-12T01:48:17.342Z,10.14
2018-11-12T01:49:11.310Z,10.21
2018-11-12T01:49:11.912Z,10.21
2018-11-12T01:49:12.508Z,10.19
2018-11-12T01:49:13.107Z,10.21
2018-11-12T01:49:13.705Z,10.22
2018-11-12T01:49:14.307Z,10.17
2018-11-12T01:49:14.906Z,10.19
2018-11-12T01:50:28.949Z,10.21
2018-11-12T01:50:29.525Z,10.21
2018-11-12T01:50:30.128Z,10.19
2018-11-12T01:50:30.725Z,10.24
2018-11-12T01:50:31.326Z,10.22
2018-11-12T01:50:31.926Z,10.26
2018-11-12T01:50:32.525Z,10.24
2018-11-12T01:51:26.581Z,10.21
2018-11-12T01:51:27.178Z,10.15
2018-11-12T01:51:27.778Z,10.24
2018-11-12T01:51:28.378Z,10.28
2018-11-12T01:51:28.978Z,10.30
2018-11-12T01:51:29.578Z,10.25
2018-11-12T01:51:30.177Z,10.28
2018-11-12T01:52:24.232Z,10.25
2018-11-12T01:52:24.829Z,10.28
2018-11-12T01:52:25.430Z,10.28
2018-11-12T01:52:26.029Z,10.32
2018-11-12T01:52:26.628Z,10.32
2018-11-12T01:52:27.229Z,10.33
2018-11-12T01:52:27.829Z,10.17
2018-11-12T01:53:21.885Z,10.26
2018-11-12T01:53:22.481Z,10.28
2018-11-12T01:53:23.080Z,10.28
2018-11-12T01:53:23.681Z,10.28
2018-11-12T01:53:24.281Z,10.30
2018-11-12T01:53:24.880Z,10.30
2018-11-12T01:53:25.480Z,10.28
2018-11-12T01:54:19.536Z,10.33
2018-11-12T01:54:20.132Z,10.36
2018-11-12T01:54:20.733Z,10.33
2018-11-12T01:54:21.339Z,10.32
2018-11-12T01:54:21.932Z,10.34
2018-11-12T01:54:22.533Z,10.34
2018-11-12T01:54:23.132Z,10.37
2018-11-12T01:55:17.215Z,10.34
2018-11-12T01:55:17.783Z,10.42
2018-11-12T01:55:18.383Z,10.34
2018-11-12T01:55:18.982Z,10.39
2018-11-12T01:55:19.583Z,10.37
2018-11-12T01:55:20.186Z,10.37
2018-11-12T01:55:20.783Z,10.33
2018-11-12T01:56:14.843Z,10.42
2018-11-12T01:56:15.438Z,10.42
2018-11-12T01:56:16.040Z,10.40
2018-11-12T01:56:16.638Z,10.42
2018-11-12T01:56:17.236Z,10.42
2018-11-12T01:56:17.835Z,10.44
2018-11-12T01:56:18.436Z,10.44
2018-11-12T01:57:12.491Z,10.42
2018-11-12T01:57:13.089Z,10.39
2018-11-12T01:57:13.687Z,10.43
2018-11-12T01:57:14.288Z,10.40
2018-11-12T01:57:14.887Z,10.36
2018-11-12T01:57:15.488Z,10.43
2018-11-12T01:57:16.094Z,10.43
2018-11-12T01:58:10.146Z,10.42
2018-11-12T01:58:10.743Z,10.32
2018-11-12T01:58:11.340Z,10.37
2018-11-12T01:58:11.940Z,10.39
2018-11-12T01:58:12.540Z,10.40
2018-11-12T01:58:13.141Z,10.36
2018-11-12T01:58:13.742Z,10.39
2018-11-12T01:59:07.793Z,10.40
2018-11-12T01:59:08.394Z,10.40
2018-11-12T01:59:08.995Z,10.40
2018-11-12T01:59:09.594Z,10.40
2018-11-12T01:59:10.191Z,10.34
2018-11-12T01:59:10.792Z,10.43
2018-11-12T01:59:11.390Z,10.34
2018-11-12T02:00:05.447Z,10.42
2018-11-12T02:00:06.043Z,10.43
2018-11-12T02:00:06.643Z,10.44
2018-11-12T02:00:07.242Z,10.46
2018-11-12T02:00:07.844Z,10.46
2018-11-12T02:00:08.445Z,10.46
2018-11-12T02:00:09.043Z,10.44
2018-11-12T02:01:03.125Z,10.46
2018-11-12T02:01:03.697Z,10.43
2018-11-12T02:01:04.295Z,10.46
2018-11-12T02:01:04.894Z,10.44
2018-11-12T02:01:05.496Z,10.44
2018-11-12T02:01:06.095Z,10.47
2018-11-12T02:01:06.697Z,10.42
2018-11-12T02:02:00.749Z,10.44
2018-11-12T02:02:01.347Z,10.40
2018-11-12T02:02:01.947Z,10.42
2018-11-12T02:02:02.547Z,10.40
2018-11-12T02:02:03.147Z,10.52
2018-11-12T02:02:03.747Z,10.42
2018-11-12T02:02:04.347Z,10.43
2018-11-12T02:02:58.401Z,10.40
2018-11-12T02:02:59.002Z,10.44
2018-11-12T02:02:59.599Z,10.40
2018-11-12T02:03:00.198Z,10.46
2018-11-12T02:03:00.801Z,10.47
2018-11-12T02:03:01.397Z,10.46
2018-11-12T02:03:01.998Z,10.44
2018-11-12T02:03:56.054Z,10.44
2018-11-12T02:03:56.650Z,10.46
2018-11-12T02:03:57.274Z,10.43
2018-11-12T02:03:57.849Z,10.47
2018-11-12T02:03:58.451Z,10.42
2018-11-12T02:03:59.049Z,10.47
2018-11-12T02:03:59.649Z,10.43
2018-11-12T02:04:53.744Z,10.40
2018-11-12T02:04:54.431Z,10.43
2018-11-12T02:04:54.964Z,10.42
2018-11-12T02:04:55.575Z,10.44
2018-11-12T02:04:56.117Z,10.47
2018-11-12T02:04:56.806Z,10.44
2018-11-12T02:04:57.372Z,10.47
2018-11-12T02:05:51.378Z,10.43
2018-11-12T02:05:51.953Z,10.47
2018-11-12T02:05:52.557Z,10.44
2018-11-12T02:05:53.152Z,10.47
2018-11-12T02:05:53.753Z,10.44
2018-11-12T02:05:54.354Z,10.43
2018-11-12T02:05:54.953Z,10.44
2018-11-12T02:06:49.007Z,10.44
2018-11-12T02:06:49.605Z,10.47
2018-11-12T02:06:50.205Z,10.40
2018-11-12T02:06:50.805Z,10.51
2018-11-12T02:06:51.405Z,10.43
2018-11-12T02:06:52.004Z,10.40
2018-11-12T02:06:52.605Z,10.43
2018-11-12T02:07:46.662Z,10.46
2018-11-12T02:07:47.257Z,10.43
2018-11-12T02:07:47.856Z,10.55
2018-11-12T02:07:48.460Z,10.44
2018-11-12T02:07:49.057Z,10.53
2018-11-12T02:07:49.662Z,10.47
2018-11-12T02:07:50.259Z,10.44
2018-11-12T02:08:44.380Z,10.40
2018-11-12T02:08:44.998Z,10.58
2018-11-12T02:08:45.585Z,10.53
2018-11-12T02:08:46.128Z,10.56
2018-11-12T02:08:46.726Z,10.44
2018-11-12T02:08:47.405Z,10.55
2018-11-12T02:08:48.017Z,10.58
2018-11-12T02:09:41.962Z,10.58
2018-11-12T02:09:42.560Z,10.51
2018-11-12T02:09:43.161Z,10.55
2018-11-12T02:09:43.759Z,10.62
2018-11-12T02:09:44.360Z,10.55
2018-11-12T02:09:44.964Z,10.55
2018-11-12T02:09:45.559Z,10.52
2018-11-12T02:10:39.637Z,10.58
2018-11-12T02:10:40.213Z,10.62
2018-11-12T02:10:40.813Z,10.55
2018-11-12T02:10:41.413Z,10.58
2018-11-12T02:10:42.012Z,10.58
2018-11-12T02:10:42.615Z,10.47
2018-11-12T02:10:43.213Z,10.62
2018-11-12T02:11:37.268Z,10.53
2018-11-12T02:11:37.864Z,10.55
2018-11-12T02:11:38.464Z,10.63
2018-11-12T02:11:39.065Z,10.56
2018-11-12T02:11:39.665Z,10.58
2018-11-12T02:11:40.263Z,10.59
2018-11-12T02:11:40.862Z,10.55
2018-11-12T02:12:34.919Z,10.56
2018-11-12T02:12:35.515Z,10.60
2018-11-12T02:12:36.114Z,10.56
2018-11-12T02:12:36.715Z,10.59
2018-11-12T02:12:37.314Z,10.60
2018-11-12T02:12:37.914Z,10.58
2018-11-12T02:12:38.514Z,10.58
2018-11-12T02:13:32.571Z,10.56
2018-11-12T02:13:33.171Z,10.66
2018-11-12T02:13:33.769Z,10.53
2018-11-12T02:13:34.366Z,10.60
2018-11-12T02:13:34.968Z,10.59
2018-11-12T02:13:35.570Z,10.60
2018-11-12T02:13:36.167Z,10.60
2018-11-12T02:14:30.246Z,10.68
2018-11-12T02:14:30.823Z,10.65
2018-11-12T02:14:31.499Z,10.56
2018-11-12T02:14:32.036Z,10.56
2018-11-12T02:14:32.711Z,10.59
2018-11-12T02:14:33.332Z,10.59
2018-11-12T02:14:33.879Z,10.62
2018-11-12T02:15:27.895Z,10.58
2018-11-12T02:15:28.471Z,10.60
2018-11-12T02:15:29.070Z,10.71
2018-11-12T02:15:29.671Z,10.65
2018-11-12T02:15:30.271Z,10.73
2018-11-12T02:15:30.871Z,10.65
2018-11-12T02:15:31.472Z,10.65
2018-11-12T02:16:25.528Z,10.73
2018-11-12T02:16:26.124Z,10.68
2018-11-12T02:16:26.724Z,10.71
2018-11-12T02:16:27.323Z,10.65
2018-11-12T02:16:27.922Z,10.66
2018-11-12T02:16:28.521Z,10.66
2018-11-12T02:16:29.121Z,10.70
2018-11-12T02:17:23.177Z,10.63
2018-11-12T02:17:23.778Z,10.65
2018-11-12T02:17:24.374Z,10.73
2018-11-12T02:17:24.974Z,10.65
2018-11-12T02:17:25.574Z,10.71
2018-11-12T02:17:26.173Z,10.73
2018-11-12T02:17:26.778Z,10.71
2018-11-12T02:18:20.830Z,10.66
2018-11-12T02:18:21.427Z,10.71
2018-11-12T02:18:22.030Z,10.68
2018-11-12T02:18:22.626Z,10.71
2018-11-12T02:18:23.226Z,10.70
2018-11-12T02:18:23.826Z,10.76
2018-11-12T02:18:24.425Z,10.65
2018-11-12T02:19:18.481Z,10.71
2018-11-12T02:19:19.078Z,10.71
2018-11-12T02:19:19.681Z,10.71
2018-11-12T02:19:20.278Z,10.71
2018-11-12T02:19:20.876Z,10.63
2018-11-12T02:19:21.478Z,10.68
2018-11-12T02:19:22.077Z,10.71
2018-11-12T02:20:16.133Z,10.68
2018-11-12T02:20:16.729Z,10.76
2018-11-12T02:20:17.331Z,10.73
2018-11-12T02:20:17.935Z,10.63
2018-11-12T02:20:18.528Z,10.74
2018-11-12T02:20:19.127Z,10.65
2018-11-12T02:20:19.727Z,10.63
2018-11-12T02:21:13.806Z,10.74
2018-11-12T02:21:14.382Z,10.76
2018-11-12T02:21:14.984Z,10.71
2018-11-12T02:21:15.581Z,10.73
2018-11-12T02:21:16.181Z,10.66
2018-11-12T02:21:16.781Z,10.70
2018-11-12T02:21:17.382Z,10.76
2018-11-12T02:22:11.438Z,10.73
2018-11-12T02:22:12.034Z,10.66
2018-11-12T02:22:12.633Z,10.74
2018-11-12T02:22:13.233Z,10.68
2018-11-12T02:22:13.835Z,10.77
2018-11-12T02:22:14.435Z,10.70
2018-11-12T02:22:15.034Z,10.76
2018-11-12T02:23:09.089Z,10.73
2018-11-12T02:23:09.685Z,10.74
2018-11-12T02:23:10.284Z,10.71
2018-11-12T02:23:10.885Z,10.76
2018-11-12T02:23:11.490Z,10.73
2018-11-12T02:23:12.084Z,10.74
2018-11-12T02:23:12.687Z,10.78
2018-11-12T02:24:06.740Z,10.76
2018-11-12T02:24:07.336Z,10.81
2018-11-12T02:24:07.938Z,10.71
2018-11-12T02:24:08.537Z,10.81
2018-11-12T02:24:09.135Z,10.78
2018-11-12T02:24:09.736Z,10.73
2018-11-12T02:24:10.337Z,10.83
2018-11-12T02:25:04.391Z,10.81
2018-11-12T02:25:04.988Z,10.92
2018-11-12T02:25:05.588Z,10.88
2018-11-12T02:25:06.187Z,10.84
2018-11-12T02:25:06.791Z,10.91
2018-11-12T02:25:07.388Z,10.91
2018-11-12T02:25:07.987Z,10.88
2018-11-12T02:26:02.068Z,10.95
2018-11-12T02:26:02.642Z,10.98
2018-11-12T02:26:03.241Z,10.94
2018-11-12T02:26:03.840Z,10.95
2018-11-12T02:26:04.439Z,10.92
2018-11-12T02:26:05.040Z,10.94
2018-11-12T02:26:05.640Z,10.94
2018-11-12T02:26:59.694Z,10.89
2018-11-12T02:27:00.291Z,10.98
2018-11-12T02:27:00.890Z,10.89
2018-11-12T02:27:01.492Z,11.01
2018-11-12T02:27:02.092Z,10.95
2018-11-12T02:27:02.691Z,10.88
2018-11-12T02:27:03.292Z,11.03
2018-11-12T02:27:57.349Z,10.99
2018-11-12T02:27:57.943Z,11.02
2018-11-12T02:27:58.549Z,11.01
2018-11-12T02:27:59.142Z,11.02
2018-11-12T02:27:59.742Z,11.03
2018-11-12T02:28:00.344Z,11.03
2018-11-12T02:28:00.944Z,11.06
2018-11-12T02:28:54.997Z,11.03
2018-11-12T02:28:55.595Z,11.06
2018-11-12T02:28:56.194Z,11.03
2018-11-12T02:28:56.795Z,11.03
2018-11-12T02:28:57.394Z,11.10
2018-11-12T02:28:57.994Z,11.06
2018-11-12T02:28:58.594Z,11.09
2018-11-12T02:29:52.649Z,11.01
2018-11-12T02:29:53.246Z,11.11
2018-11-12T02:29:53.849Z,11.10
2018-11-12T02:29:54.446Z,11.06
2018-11-12T02:29:55.046Z,11.02
2018-11-12T02:29:55.665Z,11.06
2018-11-12T02:29:56.245Z,11.10
2018-11-12T02:30:50.323Z,11.10
2018-11-12T02:30:50.902Z,11.10
2018-11-12T02:30:51.499Z,11.14
2018-11-12T02:30:52.100Z,11.11
2018-11-12T02:30:52.699Z,11.11
2018-11-12T02:30:53.302Z,11.13
2018-11-12T02:30:53.900Z,11.09
2018-11-12T02:31:47.954Z,11.14
2018-11-12T02:31:48.551Z,11.16
2018-11-12T02:31:49.152Z,11.21
2018-11-12T02:31:49.752Z,11.19
2018-11-12T02:31:50.350Z,11.24
2018-11-12T02:31:50.954Z,11.16
2018-11-12T02:31:51.550Z,11.20
2018-11-12T02:32:45.607Z,11.27
2018-11-12T02:32:46.202Z,11.28
2018-11-12T02:32:46.801Z,11.17
2018-11-12T02:32:47.400Z,11.31
2018-11-12T02:32:48.000Z,11.28
2018-11-12T02:32:48.601Z,11.27
2018-11-12T02:32:49.200Z,11.24
2018-11-12T02:33:43.259Z,11.28
2018-11-12T02:33:43.854Z,11.27
2018-11-12T02:33:44.453Z,11.29
2018-11-12T02:33:45.056Z,11.25
2018-11-12T02:33:45.654Z,11.27
2018-11-12T02:33:46.253Z,11.29
2018-11-12T02:33:46.853Z,11.31
2018-11-12T02:34:40.909Z,11.21
2018-11-12T02:34:41.505Z,11.21
2018-11-12T02:34:42.104Z,11.28
2018-11-12T02:34:42.705Z,11.25
2018-11-12T02:34:43.305Z,11.21
2018-11-12T02:34:43.905Z,11.27
2018-11-12T02:34:44.505Z,11.29
2018-11-12T02:35:38.596Z,11.27
2018-11-12T02:35:39.157Z,11.28
2018-11-12T02:35:39.760Z,11.28
2018-11-12T02:35:40.358Z,11.35
2018-11-12T02:35:40.958Z,11.34
2018-11-12T02:35:41.560Z,11.29
2018-11-12T02:35:42.154Z,11.28
2018-11-12T02:36:36.212Z,11.29
2018-11-12T02:36:36.809Z,11.43
2018-11-12T02:36:37.409Z,11.31
2018-11-12T02:36:38.008Z,11.32
2018-11-12T02:36:38.608Z,11.29
2018-11-12T02:36:39.209Z,11.35
2018-11-12T02:36:39.808Z,11.41
2018-11-12T02:37:33.863Z,11.41
2018-11-12T02:37:34.461Z,11.36
2018-11-12T02:37:35.060Z,11.38
2018-11-12T02:37:35.660Z,11.39
2018-11-12T02:37:36.259Z,11.34
2018-11-12T02:37:36.858Z,11.38
2018-11-12T02:37:37.463Z,11.34
2018-11-12T02:38:31.516Z,11.31
2018-11-12T02:38:32.112Z,11.36
2018-11-12T02:38:32.712Z,11.32
2018-11-12T02:38:33.313Z,11.39
2018-11-12T02:38:33.911Z,11.32
2018-11-12T02:38:34.512Z,11.36
2018-11-12T02:38:35.112Z,11.43
2018-11-12T02:39:29.168Z,11.44
2018-11-12T02:39:29.765Z,11.44
2018-11-12T02:39:30.364Z,11.43
2018-11-12T02:39:30.964Z,11.38
2018-11-12T02:39:31.567Z,11.41
2018-11-12T02:39:32.164Z,11.43
2018-11-12T02:39:32.763Z,11.43
2018-11-12T02:40:26.819Z,11.49
2018-11-12T02:40:27.416Z,11.44
2018-11-12T02:40:28.015Z,11.46
2018-11-12T02:40:28.614Z,11.41
2018-11-12T02:40:29.214Z,11.47
2018-11-12T02:40:29.816Z,11.49
2018-11-12T02:40:30.416Z,11.46
2018-11-12T02:41:24.492Z,11.46
2018-11-12T02:41:25.067Z,11.54
2018-11-12T02:41:25.672Z,11.49
2018-11-12T02:41:26.267Z,11.47
2018-11-12T02:41:26.867Z,11.54
2018-11-12T02:41:27.467Z,11.52
2018-11-12T02:41:28.066Z,11.53
2018-11-12T02:42:22.152Z,11.54
2018-11-12T02:42:22.725Z,11.49
2018-11-12T02:42:23.323Z,11.52
2018-11-12T02:42:23.927Z,11.49
2018-11-12T02:42:24.523Z,11.54
2018-11-12T02:42:25.128Z,11.59
2018-11-12T02:42:25.723Z,11.53
2018-11-12T02:43:19.777Z,11.53
2018-11-12T02:43:20.376Z,11.50
2018-11-12T02:43:20.975Z,11.52
2018-11-12T02:43:21.575Z,11.54
2018-11-12T02:43:22.176Z,11.53
2018-11-12T02:43:22.775Z,11.54
2018-11-12T02:43:23.381Z,11.44
2018-11-12T02:44:17.431Z,11.53
2018-11-12T02:44:18.028Z,11.57
2018-11-12T02:44:18.627Z,11.64
2018-11-12T02:44:19.226Z,11.57
2018-11-12T02:44:19.827Z,11.54
2018-11-12T02:44:20.426Z,11.54
2018-11-12T02:44:21.026Z,11.64
2018-11-12T02:45:15.082Z,11.52
2018-11-12T02:45:15.680Z,11.47
2018-11-12T02:45:16.281Z,11.52
2018-11-12T02:45:16.880Z,11.53
2018-11-12T02:45:17.480Z,11.59
2018-11-12T02:45:18.078Z,11.50
2018-11-12T02:45:18.678Z,11.52
2018-11-12T02:46:12.733Z,11.54
2018-11-12T02:46:13.330Z,11.53
2018-11-12T02:46:13.932Z,11.53
2018-11-12T02:46:14.532Z,11.62
2018-11-12T02:46:15.130Z,11.50
2018-11-12T02:46:15.729Z,11.62
2018-11-12T02:46:16.330Z,11.52
2018-11-12T02:47:10.410Z,11.50
2018-11-12T02:47:10.984Z,11.50
2018-11-12T02:47:11.582Z,11.50
2018-11-12T02:47:12.182Z,11.50
2018-11-12T02:47:12.782Z,11.49
2018-11-12T02:47:13.384Z,11.64
2018-11-12T02:47:13.983Z,11.52
2018-11-12T02:48:08.038Z,11.54
2018-11-12T02:48:08.635Z,11.56
2018-11-12T02:48:09.234Z,11.53
2018-11-12T02:48:09.834Z,11.54
2018-11-12T02:48:10.434Z,11.53
2018-11-12T02:48:11.034Z,11.56
2018-11-12T02:48:11.633Z,11.54
2018-11-12T02:49:05.690Z,11.49
2018-11-12T02:49:06.285Z,11.54
2018-11-12T02:49:06.885Z,11.49
2018-11-12T02:49:07.486Z,11.47
2018-11-12T02:49:08.090Z,11.56
2018-11-12T02:49:08.689Z,11.50
2018-11-12T02:49:09.286Z,11.54
2018-11-12T02:50:03.339Z,11.53
2018-11-12T02:50:03.938Z,11.56
2018-11-12T02:50:04.538Z,11.54
2018-11-12T02:50:05.137Z,11.49
2018-11-12T02:50:05.738Z,11.54
2018-11-12T02:50:06.338Z,11.50
2018-11-12T02:50:06.937Z,11.50
2018-11-12T02:51:00.993Z,11.52
2018-11-12T02:51:01.592Z,11.52
2018-11-12T02:51:02.205Z,11.53
2018-11-12T02:51:02.786Z,11.54
2018-11-12T02:51:03.388Z,11.54
2018-11-12T02:51:03.989Z,11.53
2018-11-12T02:51:04.590Z,11.56
2018-11-12T02:51:58.671Z,11.56
2018-11-12T02:51:59.240Z,11.54
2018-11-12T02:51:59.840Z,11.53
2018-11-12T02:52:00.440Z,11.52
2018-11-12T02:52:01.045Z,11.50
2018-11-12T02:52:01.640Z,11.54
2018-11-12T02:52:02.240Z,11.54
2018-11-12T02:52:56.294Z,11.54
2018-11-12T02:52:56.893Z,11.56
2018-11-12T02:52:57.497Z,11.52
2018-11-12T02:52:58.092Z,11.54
2018-11-12T02:52:58.692Z,11.54
2018-11-12T02:52:59.293Z,11.49
2018-11-12T02:52:59.892Z,11.52
2018-11-12T02:53:53.949Z,11.52
2018-11-12T02:53:54.542Z,11.54
2018-11-12T02:53:55.145Z,11.54
2018-11-12T02:53:55.744Z,11.59
2018-11-12T02:53:56.343Z,11.47
2018-11-12T02:53:56.943Z,11.62
2018-11-12T02:53:57.544Z,11.62
2018-11-12T02:54:51.599Z,11.50
2018-11-12T02:54:52.198Z,11.56
2018-11-12T02:54:52.797Z,11.54
2018-11-12T02:54:53.396Z,11.64
2018-11-12T02:54:53.996Z,11.53
2018-11-12T02:54:54.603Z,11.50
2018-11-12T02:54:55.193Z,11.50
2018-11-12T02:55:49.251Z,11.57
2018-11-12T02:55:49.850Z,11.52
2018-11-12T02:55:50.447Z,11.62
2018-11-12T02:55:51.049Z,11.53
2018-11-12T02:55:51.648Z,11.52
2018-11-12T02:55:52.247Z,11.65
2018-11-12T02:55:52.846Z,11.54
2018-11-12T02:56:46.926Z,11.62
2018-11-12T02:56:47.498Z,11.61
2018-11-12T02:56:48.101Z,11.65
2018-11-12T02:56:48.699Z,11.64
2018-11-12T02:56:49.301Z,11.61
2018-11-12T02:56:49.920Z,11.61
2018-11-12T02:56:50.499Z,11.62
2018-11-12T02:57:44.559Z,11.57
2018-11-12T02:57:45.151Z,11.62
2018-11-12T02:57:45.752Z,11.64
2018-11-12T02:57:46.381Z,11.64
2018-11-12T02:57:46.950Z,11.68
2018-11-12T02:57:47.553Z,11.59
2018-11-12T02:57:48.151Z,11.64
2018-11-12T02:58:42.209Z,11.53
2018-11-12T02:58:42.804Z,11.64
2018-11-12T02:58:43.404Z,11.62
2018-11-12T02:58:44.003Z,11.61
2018-11-12T02:58:44.602Z,11.68
2018-11-12T02:58:45.202Z,11.61
2018-11-12T02:58:45.802Z,11.59
2018-11-12T02:59:39.857Z,11.62
2018-11-12T02:59:40.455Z,11.64
2018-11-12T02:59:41.054Z,11.65
2018-11-12T02:59:41.656Z,11.68
2018-11-12T02:59:42.259Z,11.68
2018-11-12T02:59:42.854Z,11.71
2018-11-12T02:59:43.454Z,11.62
2018-11-12T03:00:37.508Z,11.65
2018-11-12T03:00:38.108Z,11.75
2018-11-12T03:00:38.709Z,11.72
2018-11-12T03:00:39.304Z,11.74
2018-11-12T03:00:39.912Z,11.68
2018-11-12T03:00:40.506Z,11.68
2018-11-12T03:00:41.105Z,11.68
2018-11-12T03:01:46.858Z,11.75
2018-11-12T03:01:47.440Z,11.71
2018-11-12T03:01:48.030Z,11.71
2018-11-12T03:01:48.632Z,11.71
2018-11-12T03:01:49.235Z,11.72
2018-11-12T03:01:49.831Z,11.74
2018-11-12T03:01:50.432Z,11.70
2018-11-12T03:02:44.487Z,11.68
2018-11-12T03:02:45.083Z,11.85
2018-11-12T03:02:45.684Z,11.82
2018-11-12T03:02:46.285Z,11.80
2018-11-12T03:02:46.882Z,11.82
2018-11-12T03:02:47.483Z,11.85
2018-11-12T03:02:48.081Z,11.86
2018-11-12T03:03:42.138Z,11.80
2018-11-12T03:03:42.736Z,11.85
2018-11-12T03:03:43.334Z,11.77
2018-11-12T03:03:43.936Z,11.87
2018-11-12T03:03:44.542Z,11.80
2018-11-12T03:03:45.135Z,11.80
2018-11-12T03:03:45.737Z,11.85
2018-11-12T03:04:39.791Z,11.85
2018-11-12T03:04:40.387Z,11.83
2018-11-12T03:04:40.986Z,11.75
2018-11-12T03:04:41.587Z,11.86
2018-11-12T03:04:42.187Z,11.82
2018-11-12T03:04:42.786Z,11.83
2018-11-12T03:04:43.387Z,11.85
2018-11-12T03:05:37.443Z,11.82
2018-11-12T03:05:38.038Z,11.80
2018-11-12T03:05:38.640Z,11.85
2018-11-12T03:05:39.238Z,11.83
2018-11-12T03:05:39.837Z,11.87
2018-11-12T03:05:40.440Z,11.83
2018-11-12T03:05:41.042Z,11.87
2018-11-12T03:06:35.093Z,11.78
2018-11-12T03:06:35.691Z,11.94
2018-11-12T03:06:36.291Z,11.83
2018-11-12T03:06:36.889Z,11.82
2018-11-12T03:06:37.492Z,11.85
2018-11-12T03:06:38.091Z,11.80
2018-11-12T03:06:38.688Z,11.87
2018-11-12T03:07:32.793Z,11.85
2018-11-12T03:07:33.359Z,11.83
2018-11-12T03:07:34.050Z,11.86
2018-11-12T03:07:34.567Z,11.87
2018-11-12T03:07:35.248Z,11.83
2018-11-12T03:07:35.845Z,11.82
2018-11-12T03:07:36.480Z,11.96
2018-11-12T03:08:30.398Z,11.90
2018-11-12T03:08:30.994Z,11.97
2018-11-12T03:08:31.594Z,11.94
2018-11-12T03:08:32.196Z,11.87
2018-11-12T03:08:32.794Z,11.87
2018-11-12T03:08:33.394Z,11.89
2018-11-12T03:08:33.991Z,11.82
2018-11-12T03:09:28.047Z,11.86
2018-11-12T03:09:28.644Z,11.96
2018-11-12T03:09:29.253Z,11.87
2018-11-12T03:09:29.843Z,11.85
2018-11-12T03:09:30.443Z,11.96
2018-11-12T03:09:31.043Z,11.94
2018-11-12T03:09:31.643Z,11.87
2018-11-12T03:10:25.700Z,11.85
2018-11-12T03:10:26.297Z,11.96
2018-11-12T03:10:26.898Z,11.86
2018-11-12T03:10:27.498Z,11.82
2018-11-12T03:10:28.097Z,11.96
2018-11-12T03:10:28.696Z,11.87
2018-11-12T03:10:29.298Z,11.87
2018-11-12T03:11:23.351Z,11.89
2018-11-12T03:11:23.950Z,11.97
2018-11-12T03:11:24.550Z,11.94
2018-11-12T03:11:25.148Z,11.90
2018-11-12T03:11:25.749Z,11.97
2018-11-12T03:11:26.351Z,11.86
2018-11-12T03:11:26.949Z,11.96
2018-11-12T03:12:21.035Z,11.87
2018-11-12T03:12:21.600Z,11.86
2018-11-12T03:12:22.209Z,11.96
2018-11-12T03:12:22.799Z,11.94
2018-11-12T03:12:23.401Z,11.99
2018-11-12T03:12:24.003Z,11.87
2018-11-12T03:12:24.598Z,11.96
2018-11-12T03:13:18.145Z,11.85
2018-11-12T03:13:18.741Z,11.96
2018-11-12T03:13:19.340Z,11.94
2018-11-12T03:13:19.941Z,11.87
2018-11-12T03:13:20.541Z,11.87
2018-11-12T03:13:21.143Z,11.87
2018-11-12T03:13:21.741Z,11.87
2018-11-12T03:13:22.341Z,11.96
2018-11-12T03:14:16.410Z,11.85
2018-11-12T03:14:17.006Z,11.94
2018-11-12T03:14:17.607Z,11.87
2018-11-12T03:14:18.207Z,11.97
2018-11-12T03:14:18.807Z,11.94
2018-11-12T03:14:19.405Z,11.90
2018-11-12T03:14:20.006Z,11.94
2018-11-12T03:15:14.064Z,11.93
2018-11-12T03:15:14.656Z,11.93
2018-11-12T03:15:15.262Z,11.93
2018-11-12T03:15:15.856Z,11.89
2018-11-12T03:15:16.456Z,11.97
2018-11-12T03:15:17.061Z,11.87
2018-11-12T03:15:17.659Z,11.86
2018-11-12T03:16:11.201Z,11.87
2018-11-12T03:16:11.799Z,11.87
2018-11-12T03:16:12.398Z,11.89
2018-11-12T03:16:13.000Z,11.85